Sonstiges

Flugwetter

[source: ADDS]
METAR
LOWL 170750Z VRB02KT CAVOK 20/11 Q1015 NOSIG =
TAF LOWL 170515Z 1706/1806 30004KT CAVOK TX26/1715Z TN14/1804Z
TAF
TAF LOWL 170515Z 1706/1806 30004KT CAVOK TX26/1715Z TN14/1804Z =